createdAt,value
2023-04-18T00:01:51.922Z,7.80
2023-04-18T00:04:19.457Z,7.80
2023-04-18T00:06:47.260Z,7.90
2023-04-18T00:09:14.067Z,7.90
2023-04-18T00:11:41.297Z,7.90
2023-04-18T00:14:08.531Z,7.80
2023-04-18T00:16:36.240Z,7.90
2023-04-18T00:19:04.739Z,7.80
2023-04-18T00:21:32.977Z,7.80
2023-04-18T00:23:59.841Z,7.70
2023-04-18T00:26:28.154Z,7.70
2023-04-18T00:28:55.003Z,7.60
2023-04-18T00:31:21.832Z,7.50
2023-04-18T00:33:48.768Z,7.50
2023-04-18T00:36:15.628Z,7.40
2023-04-18T00:38:42.518Z,7.30
2023-04-18T00:41:09.363Z,7.20
2023-04-18T00:43:37.134Z,7.20
2023-04-18T00:46:03.984Z,7.10
2023-04-18T00:48:31.282Z,7.10
2023-04-18T00:51:00.190Z,7.10
2023-04-18T00:53:28.128Z,7.10
2023-04-18T00:55:55.525Z,7.10
2023-04-18T00:58:22.545Z,7.10
2023-04-18T01:00:49.682Z,7.20
2023-04-18T01:03:18.410Z,7.30
2023-04-18T01:05:46.498Z,7.30
2023-04-18T01:08:13.996Z,7.30
2023-04-18T01:10:40.876Z,7.30
2023-04-18T01:13:19.690Z,7.30
2023-04-18T01:15:50.871Z,7.40
2023-04-18T01:18:19.027Z,7.50
2023-04-18T01:20:51.281Z,7.40
2023-04-18T01:23:19.739Z,7.40
2023-04-18T01:25:49.146Z,7.30
2023-04-18T01:28:16.484Z,7.30
2023-04-18T01:30:43.330Z,7.20
2023-04-18T01:33:10.531Z,7.20
2023-04-18T01:35:37.350Z,7.10
2023-04-18T01:38:04.258Z,7.00
2023-04-18T01:40:31.341Z,7.00
2023-04-18T01:42:58.258Z,6.80
2023-04-18T01:45:25.115Z,6.80
2023-04-18T01:47:52.071Z,6.80
2023-04-18T01:50:18.991Z,6.80
2023-04-18T01:52:45.920Z,6.80
2023-04-18T01:55:12.812Z,6.80
2023-04-18T01:57:39.823Z,6.80
2023-04-18T02:00:08.032Z,6.80
2023-04-18T02:02:35.108Z,6.80
2023-04-18T02:05:02.088Z,6.70
2023-04-18T02:07:29.061Z,6.80
2023-04-18T02:09:55.925Z,6.80
2023-04-18T02:12:22.737Z,6.80
2023-04-18T02:14:53.540Z,6.80
2023-04-18T02:17:23.972Z,6.80
2023-04-18T02:19:51.649Z,6.80
2023-04-18T02:22:18.826Z,6.90
2023-04-18T02:24:46.109Z,6.90
2023-04-18T02:27:12.986Z,6.80
2023-04-18T02:29:39.950Z,6.80
2023-04-18T02:32:07.247Z,6.80
2023-04-18T02:34:34.224Z,6.80
2023-04-18T02:37:01.022Z,6.90
2023-04-18T02:39:27.935Z,6.80
2023-04-18T02:41:54.781Z,6.80
2023-04-18T02:44:21.550Z,6.90
2023-04-18T02:46:48.459Z,6.90
2023-04-18T02:49:15.326Z,6.80
2023-04-18T02:51:42.177Z,6.90
2023-04-18T02:54:08.983Z,6.90
2023-04-18T02:56:39.927Z,6.80
2023-04-18T02:59:07.333Z,6.70
2023-04-18T03:01:34.401Z,6.70
2023-04-18T03:04:01.320Z,6.70
2023-04-18T03:06:28.149Z,6.60
2023-04-18T03:08:55.822Z,6.60
2023-04-18T03:11:22.807Z,6.50
2023-04-18T03:13:49.594Z,6.40
2023-04-18T03:16:16.864Z,6.40
2023-04-18T03:18:43.833Z,6.40
2023-04-18T03:21:11.420Z,6.30
2023-04-18T03:23:38.574Z,6.30
2023-04-18T03:26:13.730Z,6.20
2023-04-18T03:28:40.804Z,6.10
2023-04-18T03:31:07.738Z,6.10
2023-04-18T03:33:34.565Z,6.00
2023-04-18T03:36:01.540Z,6.00
2023-04-18T03:38:28.371Z,6.00
2023-04-18T03:40:55.265Z,5.90
2023-04-18T03:43:22.068Z,6.00
2023-04-18T03:45:49.028Z,6.00
2023-04-18T03:48:16.022Z,6.00
2023-04-18T03:50:42.806Z,6.10
2023-04-18T03:53:09.642Z,6.10
2023-04-18T03:55:36.572Z,6.10
2023-04-18T03:58:03.449Z,6.10
2023-04-18T04:00:30.454Z,6.10
2023-04-18T04:02:57.414Z,6.10
2023-04-18T04:05:24.479Z,6.00
2023-04-18T04:07:51.353Z,6.00
2023-04-18T04:10:18.157Z,6.00
2023-04-18T04:12:45.075Z,6.00
2023-04-18T04:15:12.272Z,6.00
2023-04-18T04:17:39.215Z,5.80
2023-04-18T04:20:07.321Z,5.80
2023-04-18T04:22:34.506Z,5.80
2023-04-18T04:25:01.356Z,5.80
2023-04-18T04:27:28.234Z,5.80
2023-04-18T04:29:56.334Z,5.80
2023-04-18T04:32:25.012Z,5.70
2023-04-18T04:34:52.155Z,5.70
2023-04-18T04:37:21.486Z,5.80
2023-04-18T04:39:48.367Z,5.80
2023-04-18T04:42:15.300Z,5.80
2023-04-18T04:44:42.996Z,5.90
2023-04-18T04:47:09.859Z,5.90
2023-04-18T04:49:36.723Z,6.10
2023-04-18T04:52:03.535Z,6.00
2023-04-18T04:54:30.505Z,6.10
2023-04-18T04:56:57.375Z,6.00
2023-04-18T04:59:24.223Z,6.00
2023-04-18T05:01:51.153Z,6.10
2023-04-18T05:04:18.512Z,6.10
2023-04-18T05:06:46.115Z,6.10
2023-04-18T05:09:13.574Z,6.20
2023-04-18T05:11:40.525Z,6.30
2023-04-18T05:14:07.459Z,6.40
2023-04-18T05:16:34.657Z,6.40
2023-04-18T05:19:01.592Z,6.50
2023-04-18T05:21:29.352Z,6.60
2023-04-18T05:23:56.291Z,6.70
2023-04-18T05:26:23.424Z,6.70
2023-04-18T05:28:50.355Z,6.70
2023-04-18T05:31:17.321Z,6.90
2023-04-18T05:33:44.201Z,7.00
2023-04-18T05:36:11.161Z,7.10
2023-04-18T05:38:38.050Z,7.20
2023-04-18T05:41:04.994Z,7.20
2023-04-18T05:43:31.852Z,7.20
2023-04-18T05:45:58.752Z,7.40
2023-04-18T05:48:25.758Z,7.40
2023-04-18T05:50:52.636Z,7.50
2023-04-18T05:53:19.482Z,7.60
2023-04-18T05:55:48.653Z,7.80
2023-04-18T05:58:16.029Z,8.10
2023-04-18T06:00:43.456Z,8.30
2023-04-18T06:03:11.312Z,8.70
2023-04-18T06:05:40.988Z,8.90
2023-04-18T06:08:08.118Z,9.30
2023-04-18T06:10:36.455Z,9.60
2023-04-18T06:13:05.897Z,9.80
2023-04-18T06:15:32.812Z,9.90
2023-04-18T06:17:59.759Z,10.00
2023-04-18T06:20:26.697Z,10.00
2023-04-18T06:22:53.586Z,10.00
2023-04-18T06:25:20.797Z,9.70
2023-04-18T06:27:47.629Z,9.50
2023-04-18T06:30:14.971Z,9.20
2023-04-18T06:32:41.910Z,9.10
2023-04-18T06:35:09.033Z,9.10
2023-04-18T06:37:35.992Z,8.80
2023-04-18T06:40:03.004Z,8.70
2023-04-18T06:42:29.845Z,8.90
2023-04-18T06:44:56.701Z,9.10
2023-04-18T06:47:23.597Z,9.10
2023-04-18T06:49:50.511Z,9.10
2023-04-18T06:52:17.386Z,9.10
2023-04-18T06:54:44.379Z,9.40
2023-04-18T06:57:11.334Z,9.60
2023-04-18T06:59:38.459Z,9.80
2023-04-18T07:02:05.394Z,9.90
2023-04-18T07:04:32.422Z,10.20
2023-04-18T07:06:59.346Z,10.70
2023-04-18T07:09:26.207Z,11.30
2023-04-18T07:11:53.154Z,11.70
2023-04-18T07:14:24.387Z,12.00
2023-04-18T07:16:51.774Z,12.30
2023-04-18T07:19:18.640Z,12.10
2023-04-18T07:21:45.989Z,12.20
2023-04-18T07:24:13.539Z,12.30
2023-04-18T07:26:41.013Z,12.40
2023-04-18T07:29:07.893Z,12.40
2023-04-18T07:31:34.910Z,11.80
2023-04-18T07:34:01.789Z,11.40
2023-04-18T07:36:28.734Z,11.20
2023-04-18T07:38:55.698Z,11.30
2023-04-18T07:41:22.646Z,11.20
2023-04-18T07:43:49.466Z,11.20
2023-04-18T07:46:16.440Z,11.20
2023-04-18T07:48:43.315Z,11.20
2023-04-18T07:51:11.316Z,11.10
2023-04-18T07:53:38.268Z,11.30
2023-04-18T07:56:05.418Z,11.20
2023-04-18T07:58:34.288Z,11.50
2023-04-18T08:01:01.159Z,11.90
2023-04-18T08:03:28.165Z,12.10
2023-04-18T08:05:55.894Z,12.20
2023-04-18T08:08:22.680Z,12.30
2023-04-18T08:10:49.599Z,12.20
2023-04-18T08:13:17.873Z,12.30
2023-04-18T08:15:44.754Z,12.30
2023-04-18T08:18:11.563Z,12.40
2023-04-18T08:20:38.674Z,12.50
2023-04-18T08:23:08.590Z,12.40
2023-04-18T08:25:36.688Z,12.50
2023-04-18T08:28:04.171Z,12.50
2023-04-18T08:30:31.457Z,12.60
2023-04-18T08:33:00.431Z,12.60
2023-04-18T08:35:27.630Z,12.50
2023-04-18T08:37:54.519Z,12.50
2023-04-18T08:40:21.577Z,12.40
2023-04-18T08:42:49.216Z,12.20
2023-04-18T08:45:16.325Z,12.30
2023-04-18T08:47:43.320Z,12.30
2023-04-18T08:50:11.222Z,12.30
2023-04-18T08:52:40.173Z,12.20
2023-04-18T08:55:09.353Z,12.10
2023-04-18T08:57:36.507Z,12.20
2023-04-18T09:00:09.241Z,12.30
2023-04-18T09:02:42.077Z,12.30
2023-04-18T09:05:21.231Z,12.30
2023-04-18T09:07:53.234Z,12.30
2023-04-18T09:10:32.629Z,12.30
2023-04-18T09:13:04.272Z,12.30
2023-04-18T09:15:31.471Z,12.30
2023-04-18T09:18:02.313Z,12.40
2023-04-18T09:20:41.036Z,12.60
2023-04-18T09:23:16.629Z,12.60
2023-04-18T09:25:48.602Z,12.70
2023-04-18T09:28:29.677Z,12.80
2023-04-18T09:31:12.004Z,13.00
2023-04-18T09:33:44.733Z,12.90
2023-04-18T09:36:23.780Z,13.00
2023-04-18T09:38:55.354Z,13.10
2023-04-18T09:41:23.474Z,13.30
2023-04-18T09:43:58.732Z,13.30
2023-04-18T09:46:27.345Z,13.50
2023-04-18T09:48:54.265Z,13.60
2023-04-18T09:51:21.508Z,13.90
2023-04-18T09:53:50.251Z,14.20
2023-04-18T09:56:28.763Z,13.80
2023-04-18T09:59:08.567Z,13.80
2023-04-18T10:01:36.480Z,13.90
2023-04-18T10:04:06.539Z,14.00
2023-04-18T10:06:39.644Z,13.80
2023-04-18T10:09:09.752Z,13.80
2023-04-18T10:11:36.922Z,13.80
2023-04-18T10:14:10.088Z,13.90
2023-04-18T10:16:37.897Z,13.90
2023-04-18T10:19:26.154Z,13.90
2023-04-18T10:22:01.074Z,13.70
2023-04-18T10:24:56.259Z,13.80
2023-04-18T10:27:47.754Z,14.10
2023-04-18T10:30:18.595Z,14.20
2023-04-18T10:32:48.641Z,14.30
2023-04-18T10:35:15.567Z,14.10
2023-04-18T10:37:52.643Z,14.00
2023-04-18T10:40:34.130Z,14.10
2023-04-18T10:43:01.500Z,13.90
2023-04-18T10:45:31.280Z,14.00
2023-04-18T10:48:25.993Z,14.20
2023-04-18T10:51:19.155Z,14.20
2023-04-18T10:53:54.472Z,14.20
2023-04-18T10:56:21.836Z,14.20
2023-04-18T10:58:53.215Z,14.10
2023-04-18T11:01:32.377Z,14.00
2023-04-18T11:04:01.312Z,14.10
2023-04-18T11:06:29.077Z,14.20
2023-04-18T11:09:12.565Z,14.30
2023-04-18T11:11:40.264Z,14.20
2023-04-18T11:14:07.476Z,14.30
2023-04-18T11:16:34.658Z,14.30
2023-04-18T11:19:18.840Z,14.40
2023-04-18T11:21:45.785Z,14.50
2023-04-18T11:24:21.560Z,14.50
2023-04-18T11:26:48.450Z,14.60
2023-04-18T11:29:18.035Z,14.80
2023-04-18T11:31:56.624Z,15.00
2023-04-18T11:34:30.574Z,15.10
2023-04-18T11:36:57.836Z,15.20
2023-04-18T11:39:25.203Z,15.20
2023-04-18T11:41:52.180Z,15.30
2023-04-18T11:44:24.666Z,15.30
2023-04-18T11:46:52.492Z,15.20
2023-04-18T11:49:32.791Z,14.70
2023-04-18T11:52:01.315Z,14.10
2023-04-18T11:54:38.793Z,13.80
2023-04-18T11:57:07.019Z,13.40
2023-04-18T11:59:33.985Z,13.30
2023-04-18T12:02:14.881Z,12.90
2023-04-18T12:04:57.512Z,12.80
2023-04-18T12:07:40.006Z,12.70
2023-04-18T12:10:17.263Z,12.60
2023-04-18T12:12:55.281Z,12.60
2023-04-18T12:15:28.210Z,12.40
2023-04-18T12:18:01.401Z,12.30
2023-04-18T12:20:46.005Z,12.30
2023-04-18T12:23:40.034Z,12.30
2023-04-18T12:26:12.351Z,12.30
2023-04-18T12:28:39.322Z,12.10
2023-04-18T12:31:07.277Z,12.20
2023-04-18T12:33:36.555Z,12.20
2023-04-18T12:36:05.362Z,12.30
2023-04-18T12:38:32.245Z,12.40
2023-04-18T12:40:59.043Z,12.50
2023-04-18T12:43:25.886Z,12.60
2023-04-18T12:45:52.711Z,12.80
2023-04-18T12:48:19.531Z,12.90
2023-04-18T12:50:46.375Z,13.00
2023-04-18T12:53:13.240Z,13.10
2023-04-18T12:55:40.236Z,13.20
2023-04-18T12:58:07.154Z,13.30
2023-04-18T13:00:34.098Z,13.40
2023-04-18T13:03:01.426Z,13.40
2023-04-18T13:05:32.596Z,13.40
2023-04-18T13:10:31.387Z,13.10
2023-04-18T13:12:58.424Z,13.00
2023-04-18T13:15:26.121Z,12.90
2023-04-18T13:17:55.824Z,12.80
2023-04-18T13:20:22.747Z,12.50
2023-04-18T13:22:49.671Z,12.40
2023-04-18T13:25:16.932Z,12.50
2023-04-18T13:27:45.169Z,12.60
2023-04-18T13:30:12.336Z,12.50
2023-04-18T13:32:40.371Z,12.40
2023-04-18T13:35:08.845Z,12.40
2023-04-18T13:37:36.079Z,12.40
2023-04-18T13:40:05.514Z,12.40
2023-04-18T13:42:37.163Z,12.20
2023-04-18T13:45:04.724Z,12.30
2023-04-18T13:47:31.718Z,12.20
2023-04-18T13:49:58.577Z,12.30
2023-04-18T13:52:25.843Z,12.10
2023-04-18T13:54:52.876Z,12.30
2023-04-18T13:57:19.767Z,12.40
2023-04-18T13:59:46.851Z,12.40
2023-04-18T14:02:14.333Z,12.30
2023-04-18T14:04:41.496Z,12.40
2023-04-18T14:07:09.023Z,12.40
2023-04-18T14:09:36.060Z,12.40
2023-04-18T14:12:02.901Z,12.40
2023-04-18T14:14:29.955Z,12.50
2023-04-18T14:16:56.911Z,12.40
2023-04-18T14:19:23.969Z,12.30
2023-04-18T14:21:50.871Z,12.30
2023-04-18T14:24:17.920Z,12.30
2023-04-18T14:26:44.734Z,12.30
2023-04-18T14:29:11.717Z,12.30
2023-04-18T14:31:38.645Z,12.10
2023-04-18T14:34:05.755Z,12.00
2023-04-18T14:36:32.695Z,12.00
2023-04-18T14:38:59.585Z,11.90
2023-04-18T14:41:26.845Z,11.90
2023-04-18T14:43:53.731Z,12.00
2023-04-18T14:46:21.306Z,12.00
2023-04-18T14:48:48.245Z,12.00
2023-04-18T14:51:16.668Z,12.10
2023-04-18T14:53:44.942Z,12.10
2023-04-18T14:56:12.246Z,12.20
2023-04-18T14:58:39.082Z,12.30
2023-04-18T15:01:05.966Z,12.30
2023-04-18T15:03:33.354Z,12.30
2023-04-18T15:06:00.519Z,12.30
2023-04-18T15:08:27.635Z,12.30
2023-04-18T15:10:54.484Z,12.30
2023-04-18T15:13:21.272Z,12.30
2023-04-18T15:15:56.199Z,12.20
2023-04-18T15:18:23.178Z,12.10
2023-04-18T15:20:51.571Z,12.10
2023-04-18T15:23:18.498Z,12.10
2023-04-18T15:25:46.419Z,12.10
2023-04-18T15:28:13.993Z,12.20
2023-04-18T15:30:41.028Z,12.20
2023-04-18T15:33:08.578Z,12.20
2023-04-18T15:35:36.072Z,12.30
2023-04-18T15:38:03.037Z,12.20
2023-04-18T15:40:30.389Z,12.20
2023-04-18T15:42:59.362Z,12.30
2023-04-18T15:45:26.269Z,12.20
2023-04-18T15:47:53.342Z,12.00
2023-04-18T15:50:20.503Z,11.90
2023-04-18T15:52:47.447Z,12.00
2023-04-18T15:55:14.335Z,11.90
2023-04-18T15:57:42.078Z,12.10
2023-04-18T16:00:17.407Z,12.20
2023-04-18T16:02:46.033Z,12.00
2023-04-18T16:05:13.766Z,12.10
2023-04-18T16:07:42.134Z,12.20
2023-04-18T16:10:10.293Z,12.20
2023-04-18T16:12:39.020Z,12.20
2023-04-18T16:15:08.608Z,12.30
2023-04-18T16:17:37.075Z,12.30
2023-04-18T16:20:09.081Z,12.30
2023-04-18T16:22:36.984Z,12.30
2023-04-18T16:25:04.733Z,12.30
2023-04-18T16:27:32.331Z,12.20
2023-04-18T16:29:59.261Z,12.30
2023-04-18T16:32:26.371Z,12.30
2023-04-18T16:34:53.256Z,12.20
2023-04-18T16:37:20.343Z,12.10
2023-04-18T16:39:47.433Z,12.20
2023-04-18T16:42:15.686Z,12.10
2023-04-18T16:44:44.701Z,12.00
2023-04-18T16:47:11.669Z,11.90
2023-04-18T16:49:38.611Z,11.90
2023-04-18T16:52:05.482Z,11.80
2023-04-18T16:54:32.328Z,11.70
2023-04-18T16:56:59.241Z,11.70
2023-04-18T16:59:26.075Z,11.70
2023-04-18T17:01:53.028Z,11.60
2023-04-18T17:04:19.977Z,11.60
2023-04-18T17:06:46.983Z,11.70
2023-04-18T17:09:14.725Z,11.60
2023-04-18T17:11:41.908Z,11.60
2023-04-18T17:14:08.926Z,11.70
2023-04-18T17:16:42.300Z,11.60
2023-04-18T17:19:10.574Z,11.60
2023-04-18T17:21:38.302Z,11.50
2023-04-18T17:24:06.974Z,11.50
2023-04-18T17:26:35.771Z,11.50
2023-04-18T17:29:04.260Z,11.40
2023-04-18T17:31:31.974Z,11.30
2023-04-18T17:33:59.668Z,11.20
2023-04-18T17:36:27.227Z,11.10
2023-04-18T17:38:54.149Z,11.10
2023-04-18T17:41:21.886Z,11.00
2023-04-18T17:43:53.476Z,11.10
2023-04-18T17:46:20.477Z,11.10
2023-04-18T17:48:47.355Z,11.00
2023-04-18T17:51:16.249Z,11.10
2023-04-18T17:53:43.245Z,10.90
2023-04-18T17:56:10.077Z,10.90
2023-04-18T17:58:39.861Z,10.90
2023-04-18T18:01:26.154Z,10.90
2023-04-18T18:03:54.060Z,10.90
2023-04-18T18:06:21.322Z,10.90
2023-04-18T18:08:48.186Z,10.90
2023-04-18T18:11:15.152Z,10.80
2023-04-18T18:13:42.378Z,10.80
2023-04-18T18:16:09.211Z,10.70
2023-04-18T18:18:39.708Z,10.60
2023-04-18T18:21:06.676Z,10.60
2023-04-18T18:23:33.489Z,10.70
2023-04-18T18:26:00.690Z,10.50
2023-04-18T18:28:27.743Z,10.40
2023-04-18T18:30:54.570Z,10.40
2023-04-18T18:33:21.438Z,10.30
2023-04-18T18:35:48.369Z,10.30
2023-04-18T18:38:15.208Z,10.10
2023-04-18T18:40:42.207Z,10.10
2023-04-18T18:43:12.647Z,10.00
2023-04-18T18:45:39.474Z,10.10
2023-04-18T18:48:10.092Z,10.10
2023-04-18T18:50:37.198Z,10.00
2023-04-18T18:53:08.651Z,10.00
2023-04-18T18:55:35.482Z,10.00
2023-04-18T18:58:02.586Z,10.00
2023-04-18T19:00:29.425Z,10.00
2023-04-18T19:02:56.460Z,10.10
2023-04-18T19:05:23.491Z,10.00
2023-04-18T19:07:51.547Z,9.80
2023-04-18T19:10:21.583Z,9.80
2023-04-18T19:12:49.040Z,9.80
2023-04-18T19:15:15.940Z,9.70
2023-04-18T19:17:42.915Z,9.70
2023-04-18T19:20:09.995Z,9.80
2023-04-18T19:22:40.976Z,9.70
2023-04-18T19:25:10.607Z,9.60
2023-04-18T19:27:40.830Z,9.60
2023-04-18T19:30:09.017Z,9.60
2023-04-18T19:32:35.926Z,9.60
2023-04-18T19:35:05.796Z,9.70
2023-04-18T19:37:32.908Z,9.70
2023-04-18T19:39:59.736Z,9.60
2023-04-18T19:42:27.254Z,9.60
2023-04-18T19:44:54.303Z,9.60
2023-04-18T19:47:24.137Z,9.60
2023-04-18T19:49:51.145Z,9.60
2023-04-18T19:52:21.537Z,9.60
2023-04-18T19:54:48.793Z,9.60
2023-04-18T19:57:15.716Z,9.60
2023-04-18T19:59:43.240Z,9.60
2023-04-18T20:02:10.319Z,9.60
2023-04-18T20:04:37.594Z,9.50
2023-04-18T20:07:04.634Z,9.60
2023-04-18T20:09:31.498Z,9.60
2023-04-18T20:12:00.567Z,9.60
2023-04-18T20:14:28.722Z,9.50
2023-04-18T20:16:56.644Z,9.50
2023-04-18T20:19:25.708Z,9.50
2023-04-18T20:21:52.919Z,9.40
2023-04-18T20:24:21.157Z,9.30
2023-04-18T20:26:48.118Z,9.30
2023-04-18T20:29:15.367Z,9.40
2023-04-18T20:31:45.155Z,9.30
2023-04-18T20:34:12.059Z,9.30
2023-04-18T20:36:44.586Z,9.30
2023-04-18T20:39:13.100Z,9.30
2023-04-18T20:41:46.403Z,9.30
2023-04-18T20:44:14.052Z,9.30
2023-04-18T20:46:42.690Z,9.40
2023-04-18T20:49:09.857Z,9.40
2023-04-18T20:51:37.961Z,9.30
2023-04-18T20:54:05.657Z,9.40
2023-04-18T20:56:33.726Z,9.40
2023-04-18T20:59:00.823Z,9.30
2023-04-18T21:01:27.741Z,9.20
2023-04-18T21:03:54.702Z,9.20
2023-04-18T21:06:22.132Z,9.20
2023-04-18T21:08:49.097Z,9.20
2023-04-18T21:11:15.955Z,9.30
2023-04-18T21:13:42.820Z,9.30
2023-04-18T21:16:10.571Z,9.30
2023-04-18T21:18:37.597Z,9.30
2023-04-18T21:21:05.399Z,9.30
2023-04-18T21:23:32.227Z,9.30
2023-04-18T21:25:59.007Z,9.30
2023-04-18T21:28:25.907Z,9.40
2023-04-18T21:30:52.711Z,9.30
2023-04-18T21:33:19.599Z,9.30
2023-04-18T21:35:46.394Z,9.30
2023-04-18T21:38:13.872Z,9.30
2023-04-18T21:40:40.659Z,9.40
2023-04-18T21:43:07.525Z,9.40
2023-04-18T21:45:34.348Z,9.40
2023-04-18T21:48:01.264Z,9.30
2023-04-18T21:50:28.217Z,9.40
2023-04-18T21:52:55.167Z,9.40
2023-04-18T21:55:22.025Z,9.30
2023-04-18T21:57:48.838Z,9.40
2023-04-18T22:00:16.543Z,9.30
2023-04-18T22:02:43.642Z,9.30
2023-04-18T22:05:12.871Z,9.30
2023-04-18T22:07:54.393Z,9.30
2023-04-18T22:10:25.102Z,9.20
2023-04-18T22:12:55.755Z,9.20
2023-04-18T22:15:24.085Z,9.10
2023-04-18T22:17:50.978Z,9.10
2023-04-18T22:20:17.915Z,9.00
2023-04-18T22:22:44.887Z,8.80
2023-04-18T22:25:11.858Z,8.70
2023-04-18T22:27:39.509Z,8.60
2023-04-18T22:30:07.311Z,8.50
2023-04-18T22:32:34.167Z,8.40
2023-04-18T22:35:02.593Z,8.40
2023-04-18T22:37:29.524Z,8.40
2023-04-18T22:39:56.323Z,8.20
2023-04-18T22:42:23.183Z,8.30
2023-04-18T22:44:50.088Z,8.30
2023-04-18T22:47:16.906Z,8.30
2023-04-18T22:49:44.384Z,8.40
2023-04-18T22:52:11.853Z,8.40
2023-04-18T22:54:42.251Z,8.40
2023-04-18T22:57:09.136Z,8.50
2023-04-18T22:59:36.069Z,8.50
2023-04-18T23:02:03.037Z,8.50
2023-04-18T23:04:30.175Z,8.60
2023-04-18T23:06:57.089Z,8.60
2023-04-18T23:09:24.476Z,8.60
2023-04-18T23:11:51.337Z,8.70
2023-04-18T23:14:18.294Z,8.70
2023-04-18T23:16:45.259Z,8.80
2023-04-18T23:19:12.044Z,8.80
2023-04-18T23:21:38.883Z,8.80
2023-04-18T23:24:06.441Z,8.80
2023-04-18T23:26:33.295Z,8.80
2023-04-18T23:29:00.239Z,8.80
2023-04-18T23:31:27.166Z,8.80
2023-04-18T23:33:54.731Z,8.70
2023-04-18T23:36:21.559Z,8.80
2023-04-18T23:38:48.347Z,8.80
2023-04-18T23:41:15.172Z,8.80
2023-04-18T23:43:42.024Z,8.80
2023-04-18T23:46:08.963Z,8.80
2023-04-18T23:48:35.926Z,8.80
2023-04-18T23:51:02.744Z,8.70
2023-04-18T23:53:29.612Z,8.80
2023-04-18T23:55:56.507Z,8.70
2023-04-18T23:58:23.308Z,8.80
